createdAt,value
2018-08-28T00:00:24.466Z,1.20
2018-08-28T00:02:53.443Z,1.37
2018-08-28T00:05:22.078Z,1.43
2018-08-28T00:07:50.725Z,1.53
2018-08-28T00:10:19.466Z,1.13
2018-08-28T00:12:48.074Z,0.90
2018-08-28T00:15:16.801Z,0.80
2018-08-28T00:17:45.464Z,1.13
2018-08-28T00:20:14.424Z,1.20
2018-08-28T00:22:43.095Z,1.10
2018-08-28T00:25:12.038Z,1.00
2018-08-28T00:27:40.914Z,1.00
2018-08-28T00:30:09.652Z,0.83
2018-08-28T00:32:38.655Z,0.97
2018-08-28T00:35:07.619Z,1.17
2018-08-28T00:37:36.218Z,1.27
2018-08-28T00:40:05.286Z,0.83
2018-08-28T00:42:33.970Z,1.20
2018-08-28T00:45:02.737Z,0.73
2018-08-28T00:47:31.692Z,1.57
2018-08-28T00:50:00.442Z,0.80
2018-08-28T00:52:29.526Z,1.07
2018-08-28T00:54:58.257Z,0.90
2018-08-28T00:57:27.193Z,1.13
2018-08-28T00:59:55.812Z,0.90
2018-08-28T01:02:24.484Z,1.10
2018-08-28T01:04:54.433Z,0.90
2018-08-28T01:07:23.216Z,0.90
2018-08-28T01:09:51.830Z,0.93
2018-08-28T01:12:20.691Z,1.33
2018-08-28T01:14:49.602Z,1.00
2018-08-28T01:17:18.275Z,0.93
2018-08-28T01:19:47.194Z,0.80
2018-08-28T01:22:15.898Z,0.80
2018-08-28T01:24:44.821Z,0.87
2018-08-28T01:27:13.530Z,1.13
2018-08-28T01:29:42.143Z,1.20
2018-08-28T01:32:10.995Z,0.97
2018-08-28T01:34:39.703Z,1.23
2018-08-28T01:37:08.990Z,0.93
2018-08-28T01:39:37.550Z,0.90
2018-08-28T01:42:06.439Z,0.90
2018-08-28T01:44:35.082Z,0.83
2018-08-28T01:47:03.781Z,0.93
2018-08-28T01:49:32.526Z,0.80
2018-08-28T01:52:01.315Z,1.07
2018-08-28T01:54:30.697Z,0.90
2018-08-28T01:56:59.247Z,0.80
2018-08-28T01:59:28.110Z,1.10
2018-08-28T02:01:56.855Z,0.90
2018-08-28T02:04:25.847Z,1.13
2018-08-28T02:06:54.499Z,1.00
2018-08-28T02:09:23.324Z,0.63
2018-08-28T02:11:52.642Z,1.00
2018-08-28T02:14:21.550Z,1.00
2018-08-28T02:16:50.298Z,0.90
2018-08-28T02:19:19.014Z,0.77
2018-08-28T02:21:47.610Z,0.57
2018-08-28T02:24:16.170Z,0.70
2018-08-28T02:26:45.434Z,0.53
2018-08-28T02:29:14.814Z,0.60
2018-08-28T02:31:43.740Z,0.63
2018-08-28T02:34:12.529Z,0.50
2018-08-28T02:36:41.427Z,0.70
2018-08-28T02:39:11.466Z,0.60
2018-08-28T02:41:41.090Z,0.50
2018-08-28T02:44:10.143Z,0.80
2018-08-28T02:46:39.859Z,0.70
2018-08-28T02:49:08.446Z,0.50
2018-08-28T02:51:37.746Z,0.97
2018-08-28T02:54:06.396Z,0.70
2018-08-28T02:56:34.997Z,0.60
2018-08-28T02:59:03.786Z,0.63
2018-08-28T03:01:32.427Z,0.93
2018-08-28T03:04:01.639Z,0.60
2018-08-28T03:06:30.400Z,0.57
2018-08-28T03:08:59.262Z,0.50
2018-08-28T03:11:27.987Z,0.87
2018-08-28T03:13:57.506Z,0.80
2018-08-28T03:16:26.135Z,0.67
2018-08-28T03:18:56.182Z,0.90
2018-08-28T03:21:24.920Z,0.50
2018-08-28T03:23:53.844Z,0.60
2018-08-28T03:26:22.414Z,0.50
2018-08-28T03:28:51.476Z,0.73
2018-08-28T03:31:20.215Z,0.70
2018-08-28T03:33:48.806Z,0.67
2018-08-28T03:36:17.382Z,0.60
2018-08-28T03:38:46.099Z,0.80
2018-08-28T03:41:14.850Z,0.80
2018-08-28T03:43:43.683Z,0.80
2018-08-28T03:46:13.565Z,0.73
2018-08-28T03:48:43.058Z,0.70
2018-08-28T03:51:11.983Z,0.80
2018-08-28T03:53:40.708Z,1.37
2018-08-28T03:56:09.690Z,0.90
2018-08-28T03:58:38.522Z,0.80
2018-08-28T04:01:07.346Z,0.80
2018-08-28T04:03:36.088Z,0.80
2018-08-28T04:06:04.778Z,1.00
2018-08-28T04:08:33.425Z,0.70
2018-08-28T04:11:02.047Z,0.73
2018-08-28T04:13:31.211Z,0.80
2018-08-28T04:15:59.806Z,0.60
2018-08-28T04:18:28.718Z,0.60
2018-08-28T04:20:57.463Z,0.70
2018-08-28T04:23:26.457Z,0.60
2018-08-28T04:25:55.090Z,1.10
2018-08-28T04:28:23.776Z,0.87
2018-08-28T04:30:52.419Z,0.90
2018-08-28T04:33:21.160Z,1.20
2018-08-28T04:35:50.601Z,1.00
2018-08-28T04:38:19.214Z,0.93
2018-08-28T04:40:48.729Z,0.87
2018-08-28T04:43:18.230Z,1.00
2018-08-28T04:45:47.650Z,1.10
2018-08-28T04:48:16.461Z,0.90
2018-08-28T04:50:45.888Z,0.90
2018-08-28T04:53:14.419Z,0.90
2018-08-28T04:55:43.279Z,0.80
2018-08-28T04:58:12.046Z,0.80
2018-08-28T05:00:41.059Z,0.90
2018-08-28T05:03:09.757Z,0.80
2018-08-28T05:05:38.437Z,0.80
2018-08-28T05:08:07.196Z,0.70
2018-08-28T05:10:36.003Z,0.87
2018-08-28T05:13:05.478Z,0.70
2018-08-28T05:15:34.175Z,0.80
2018-08-28T05:18:05.146Z,0.77
2018-08-28T05:20:39.403Z,0.83
2018-08-28T05:23:09.977Z,0.90
2018-08-28T05:25:47.190Z,0.80
2018-08-28T05:28:16.897Z,0.93
2018-08-28T05:30:46.014Z,0.77
2018-08-28T05:33:16.942Z,0.70
2018-08-28T05:35:47.389Z,0.70
2018-08-28T05:38:18.657Z,1.00
2018-08-28T05:40:50.313Z,0.90
2018-08-28T05:43:24.517Z,0.80
2018-08-28T05:45:54.182Z,1.10
2018-08-28T05:48:25.176Z,0.90
2018-08-28T05:51:02.262Z,0.90
2018-08-28T05:53:33.674Z,0.83
2018-08-28T05:56:07.243Z,0.73
2018-08-28T05:58:37.702Z,0.93
2018-08-28T06:01:06.573Z,0.83
2018-08-28T06:03:35.392Z,0.87
2018-08-28T06:06:04.027Z,0.97
2018-08-28T06:08:32.681Z,1.33
2018-08-28T06:11:02.110Z,0.90
2018-08-28T06:13:30.871Z,0.83
2018-08-28T06:16:03.283Z,1.00
2018-08-28T06:18:34.496Z,0.70
2018-08-28T06:21:05.338Z,0.80
2018-08-28T06:23:35.430Z,0.83
2018-08-28T06:26:07.701Z,0.70
2018-08-28T06:28:39.260Z,0.80
2018-08-28T06:31:07.874Z,0.80
2018-08-28T06:33:37.157Z,0.70
2018-08-28T06:36:05.834Z,1.00
2018-08-28T06:38:35.213Z,0.90
2018-08-28T06:41:04.330Z,1.03
2018-08-28T06:43:32.975Z,0.70
2018-08-28T06:46:01.802Z,0.80
2018-08-28T06:48:30.331Z,0.77
2018-08-28T06:50:59.350Z,0.80
2018-08-28T06:53:28.062Z,0.80
2018-08-28T06:55:58.286Z,0.70
2018-08-28T06:58:26.986Z,0.50
2018-08-28T07:00:55.963Z,0.40
2018-08-28T07:03:24.626Z,0.60
2018-08-28T07:05:53.659Z,0.70
2018-08-28T07:08:22.198Z,0.60
2018-08-28T07:10:51.186Z,0.62
2018-08-28T07:13:19.899Z,0.50
2018-08-28T07:15:48.504Z,0.50
2018-08-28T07:18:17.123Z,0.78
2018-08-28T07:20:45.903Z,0.70
2018-08-28T07:23:15.050Z,0.80
2018-08-28T07:25:43.641Z,0.72
2018-08-28T07:28:13.136Z,0.77
2018-08-28T07:30:41.831Z,0.88
2018-08-28T07:33:11.540Z,0.95
2018-08-28T07:35:40.947Z,0.82
2018-08-28T07:38:10.745Z,0.60
2018-08-28T07:40:39.302Z,0.55
2018-08-28T07:43:08.386Z,0.80
2018-08-28T07:45:38.234Z,0.68
2018-08-28T07:48:07.196Z,0.82
2018-08-28T07:50:35.979Z,0.62
2018-08-28T07:53:04.691Z,0.60
2018-08-28T07:55:33.322Z,1.05
2018-08-28T07:58:02.353Z,0.90
2018-08-28T08:00:31.064Z,0.72
2018-08-28T08:02:59.666Z,0.68
2018-08-28T08:05:28.411Z,0.70
2018-08-28T08:07:57.054Z,0.78
2018-08-28T08:10:25.656Z,1.02
2018-08-28T08:12:54.609Z,0.90
2018-08-28T08:15:23.383Z,0.80
2018-08-28T08:17:52.122Z,0.80
2018-08-28T08:20:20.890Z,0.60
2018-08-28T08:22:49.590Z,0.50
2018-08-28T08:25:18.165Z,0.50
2018-08-28T08:27:47.153Z,0.40
2018-08-28T08:30:16.514Z,0.50
2018-08-28T08:32:45.994Z,0.45
2018-08-28T08:35:14.769Z,0.45
2018-08-28T08:37:43.825Z,0.45
2018-08-28T08:40:12.539Z,0.40
2018-08-28T08:42:41.299Z,0.30
2018-08-28T08:45:10.043Z,0.40
2018-08-28T08:47:39.518Z,0.42
2018-08-28T08:50:08.200Z,0.40
2018-08-28T08:52:37.016Z,0.40
2018-08-28T08:55:06.032Z,0.47
2018-08-28T08:57:34.619Z,0.55
2018-08-28T09:00:03.615Z,0.55
2018-08-28T09:02:32.190Z,0.40
2018-08-28T09:05:00.943Z,0.50
2018-08-28T09:07:29.594Z,0.40
2018-08-28T09:09:58.589Z,0.53
2018-08-28T09:12:27.274Z,0.50
2018-08-28T09:14:56.684Z,0.40
2018-08-28T09:17:25.259Z,0.30
2018-08-28T09:19:54.028Z,0.60
2018-08-28T09:22:22.854Z,0.40
2018-08-28T09:24:51.645Z,0.30
2018-08-28T09:27:20.727Z,0.40
2018-08-28T09:29:49.589Z,0.62
2018-08-28T09:32:18.466Z,0.55
2018-08-28T09:34:47.174Z,0.40
2018-08-28T09:37:15.747Z,0.50
2018-08-28T09:39:44.450Z,0.60
2018-08-28T09:42:13.012Z,0.42
2018-08-28T09:44:42.619Z,0.42
2018-08-28T09:47:11.199Z,0.45
2018-08-28T09:49:40.075Z,0.50
2018-08-28T09:52:08.620Z,0.40
2018-08-28T09:54:37.634Z,0.60
2018-08-28T09:57:06.640Z,0.50
2018-08-28T09:59:35.464Z,0.30
2018-08-28T10:02:04.138Z,0.42
2018-08-28T10:04:32.718Z,0.30
2018-08-28T10:07:01.198Z,0.50
2018-08-28T10:09:29.830Z,0.55
2018-08-28T10:11:58.594Z,0.70
2018-08-28T10:14:27.272Z,0.40
2018-08-28T10:16:56.050Z,0.40
2018-08-28T10:19:25.337Z,0.72
2018-08-28T10:21:54.694Z,0.45
2018-08-28T10:24:23.416Z,0.35
2018-08-28T10:26:52.285Z,0.35
2018-08-28T10:29:20.866Z,0.60
2018-08-28T10:31:49.771Z,0.57
2018-08-28T10:34:18.330Z,0.60
2018-08-28T10:36:47.006Z,0.60
2018-08-28T10:39:16.462Z,0.40
2018-08-28T10:41:45.602Z,0.55
2018-08-28T10:44:15.014Z,0.40
2018-08-28T10:46:43.770Z,0.60
2018-08-28T10:49:12.653Z,0.50
2018-08-28T10:51:41.430Z,0.33
2018-08-28T10:54:10.330Z,0.72
2018-08-28T10:56:38.925Z,0.60
2018-08-28T10:59:07.727Z,0.30
2018-08-28T11:01:36.482Z,0.75
2018-08-28T11:04:05.155Z,0.70
2018-08-28T11:06:33.890Z,0.70
2018-08-28T11:09:02.420Z,0.60
2018-08-28T11:11:31.667Z,0.50
2018-08-28T11:14:00.238Z,0.82
2018-08-28T11:16:29.421Z,0.80
2018-08-28T11:18:59.071Z,1.00
2018-08-28T11:21:31.328Z,0.70
2018-08-28T11:24:01.524Z,0.70
2018-08-28T11:26:33.174Z,0.80
2018-08-28T11:29:05.031Z,0.72
2018-08-28T11:31:34.542Z,1.00
2018-08-28T11:34:07.489Z,0.80
2018-08-28T11:36:38.652Z,1.00
2018-08-28T11:39:09.671Z,0.85
2018-08-28T11:41:40.604Z,0.80
2018-08-28T11:44:10.007Z,1.20
2018-08-28T11:46:40.218Z,1.07
2018-08-28T11:49:13.514Z,1.00
2018-08-28T11:51:42.858Z,1.30
2018-08-28T11:54:13.834Z,1.40
2018-08-28T11:56:43.246Z,1.12
2018-08-28T11:59:13.678Z,1.10
2018-08-28T12:01:47.455Z,1.25
2018-08-28T12:04:21.071Z,1.10
2018-08-28T12:06:52.721Z,1.17
2018-08-28T12:09:22.814Z,1.10
2018-08-28T12:11:54.171Z,1.10
2018-08-28T12:14:25.138Z,1.10
2018-08-28T12:16:56.495Z,1.07
2018-08-28T12:19:29.162Z,0.93
2018-08-28T12:22:04.455Z,1.10
2018-08-28T12:24:34.583Z,1.12
2018-08-28T12:27:06.255Z,1.07
2018-08-28T12:29:42.772Z,1.10
2018-08-28T12:32:12.755Z,1.30
2018-08-28T12:34:41.950Z,0.98
2018-08-28T12:37:10.583Z,1.00
2018-08-28T12:39:39.478Z,0.60
2018-08-28T12:42:08.155Z,0.50
2018-08-28T12:44:36.786Z,0.55
2018-08-28T12:47:05.410Z,0.50
2018-08-28T12:49:34.012Z,0.72
2018-08-28T12:52:04.318Z,0.60
2018-08-28T12:54:33.021Z,0.70
2018-08-28T12:57:02.106Z,0.53
2018-08-28T12:59:30.707Z,0.50
2018-08-28T13:01:59.870Z,0.78
2018-08-28T13:04:28.469Z,0.60
2018-08-28T13:06:57.312Z,0.60
2018-08-28T13:09:26.036Z,0.53
2018-08-28T13:11:54.666Z,0.55
2018-08-28T13:14:23.407Z,0.68
2018-08-28T13:16:52.270Z,0.60
2018-08-28T13:19:21.853Z,0.50
2018-08-28T13:21:50.534Z,0.60
2018-08-28T13:24:19.444Z,0.60
2018-08-28T13:26:48.646Z,0.72
2018-08-28T13:29:18.280Z,0.75
2018-08-28T13:31:47.069Z,0.75
2018-08-28T13:34:15.880Z,0.70
2018-08-28T13:36:44.748Z,0.50
2018-08-28T13:39:13.654Z,0.65
2018-08-28T13:41:42.198Z,0.60
2018-08-28T13:44:11.571Z,0.60
2018-08-28T13:46:40.320Z,0.62
2018-08-28T13:49:09.043Z,0.57
2018-08-28T13:51:37.926Z,0.53
2018-08-28T13:54:06.466Z,0.50
2018-08-28T13:56:35.523Z,0.70
2018-08-28T13:59:04.248Z,0.68
2018-08-28T14:01:33.170Z,0.50
2018-08-28T14:04:02.210Z,0.50
2018-08-28T14:06:30.859Z,0.65
2018-08-28T14:08:59.586Z,0.70
2018-08-28T14:11:28.222Z,0.45
2018-08-28T14:13:57.277Z,0.78
2018-08-28T14:16:25.740Z,0.68
2018-08-28T14:18:54.690Z,0.90
2018-08-28T14:21:23.383Z,0.80
2018-08-28T14:23:53.727Z,0.70
2018-08-28T14:26:22.550Z,0.82
2018-08-28T14:28:53.301Z,0.60
2018-08-28T14:31:21.959Z,0.90
2018-08-28T14:33:51.818Z,0.70
2018-08-28T14:36:20.374Z,0.80
2018-08-28T14:38:49.530Z,0.70
2018-08-28T14:41:18.141Z,0.70
2018-08-28T14:43:47.048Z,0.70
2018-08-28T14:46:15.788Z,0.80
2018-08-28T14:48:44.491Z,0.70
2018-08-28T14:51:13.095Z,0.72
2018-08-28T14:53:41.718Z,0.50
2018-08-28T14:56:10.672Z,0.60
2018-08-28T14:58:39.300Z,0.53
2018-08-28T15:01:08.495Z,0.50
2018-08-28T15:03:37.116Z,0.70
2018-08-28T15:06:05.946Z,0.55
2018-08-28T15:08:34.705Z,0.60
2018-08-28T15:11:03.360Z,0.60
2018-08-28T15:13:32.213Z,0.53
2018-08-28T15:16:00.752Z,0.60
2018-08-28T15:18:29.354Z,0.62
2018-08-28T15:20:57.996Z,0.50
2018-08-28T15:23:26.922Z,0.50
2018-08-28T15:25:55.911Z,0.62
2018-08-28T15:28:25.109Z,0.50
2018-08-28T15:30:54.498Z,0.50
2018-08-28T15:33:23.093Z,0.47
2018-08-28T15:35:52.306Z,0.60
2018-08-28T15:38:21.002Z,0.62
2018-08-28T15:40:49.661Z,0.60
2018-08-28T15:43:18.997Z,0.55
2018-08-28T15:45:47.794Z,0.68
2018-08-28T15:48:16.534Z,0.62
2018-08-28T15:50:45.823Z,0.60
2018-08-28T15:53:14.461Z,0.53
2018-08-28T15:55:43.160Z,0.50
2018-08-28T15:58:11.790Z,0.50
2018-08-28T16:00:40.734Z,0.40
2018-08-28T16:03:09.454Z,0.30
2018-08-28T16:05:38.338Z,0.30
2018-08-28T16:08:07.216Z,0.50
2018-08-28T16:10:37.129Z,0.50
2018-08-28T16:13:05.726Z,0.50
2018-08-28T16:15:34.622Z,0.50
2018-08-28T16:18:03.294Z,0.50
2018-08-28T16:20:32.138Z,0.60
2018-08-28T16:23:03.886Z,0.70
2018-08-28T16:25:32.789Z,0.68
2018-08-28T16:28:01.435Z,0.50
2018-08-28T16:30:30.730Z,0.80
2018-08-28T16:32:59.294Z,0.47
2018-08-28T16:35:28.028Z,0.55
2018-08-28T16:37:57.334Z,0.50
2018-08-28T16:40:26.525Z,0.60
2018-08-28T16:42:55.829Z,0.90
2018-08-28T16:45:25.488Z,0.50
2018-08-28T16:47:54.820Z,0.65
2018-08-28T16:50:23.587Z,0.62
2018-08-28T16:52:53.846Z,0.60
2018-08-28T16:55:22.420Z,0.70
2018-08-28T16:57:51.717Z,0.53
2018-08-28T17:00:20.494Z,0.60
2018-08-28T17:02:49.281Z,0.70
2018-08-28T17:05:18.069Z,0.68
2018-08-28T17:07:46.778Z,0.55
2018-08-28T17:10:15.350Z,0.50
2018-08-28T17:12:43.882Z,0.60
2018-08-28T17:15:12.412Z,0.50
2018-08-28T17:17:40.931Z,0.70
2018-08-28T17:20:10.874Z,0.68
2018-08-28T17:22:40.016Z,0.70
2018-08-28T17:25:09.498Z,0.50
2018-08-28T17:27:38.070Z,0.70
2018-08-28T17:30:07.865Z,0.60
2018-08-28T17:32:36.576Z,0.60
2018-08-28T17:35:05.802Z,0.70
2018-08-28T17:37:34.479Z,0.70
2018-08-28T17:40:03.266Z,0.68
2018-08-28T17:42:32.050Z,0.70
2018-08-28T17:45:01.000Z,0.70
2018-08-28T17:47:29.747Z,0.65
2018-08-28T17:49:58.488Z,0.60
2018-08-28T17:52:27.193Z,0.78
2018-08-28T17:54:56.129Z,0.70
2018-08-28T17:57:25.033Z,0.65
2018-08-28T17:59:53.603Z,0.57
2018-08-28T18:02:22.810Z,0.60
2018-08-28T18:04:51.395Z,0.80
2018-08-28T18:07:20.426Z,0.60
2018-08-28T18:09:49.110Z,0.72
2018-08-28T18:12:20.075Z,0.70
2018-08-28T18:14:48.756Z,0.60
2018-08-28T18:17:17.649Z,0.78
2018-08-28T18:19:46.411Z,0.80
2018-08-28T18:22:16.135Z,0.65
2018-08-28T18:24:46.860Z,0.90
2018-08-28T18:27:15.601Z,0.80
2018-08-28T18:29:44.435Z,0.83
2018-08-28T18:32:13.401Z,0.80
2018-08-28T18:34:42.326Z,0.53
2018-08-28T18:37:11.040Z,0.80
2018-08-28T18:39:39.682Z,0.70
2018-08-28T18:42:08.422Z,0.67
2018-08-28T18:44:37.239Z,0.77
2018-08-28T18:47:06.006Z,0.90
2018-08-28T18:49:34.840Z,0.90
2018-08-28T18:52:03.523Z,0.90
2018-08-28T18:54:32.716Z,0.90
2018-08-28T18:57:02.158Z,1.00
2018-08-28T18:59:31.122Z,1.00
2018-08-28T19:01:59.759Z,0.90
2018-08-28T19:04:29.524Z,0.90
2018-08-28T19:06:58.293Z,0.90
2018-08-28T19:09:28.041Z,1.00
2018-08-28T19:11:56.910Z,0.80
2018-08-28T19:14:25.699Z,0.90
2018-08-28T19:16:54.366Z,1.10
2018-08-28T19:19:22.984Z,0.87
2018-08-28T19:21:51.571Z,0.63
2018-08-28T19:24:20.726Z,0.90
2018-08-28T19:26:49.663Z,1.00
2018-08-28T19:29:19.714Z,1.00
2018-08-28T19:31:48.872Z,1.20
2018-08-28T19:34:17.439Z,1.03
2018-08-28T19:36:46.508Z,0.90
2018-08-28T19:39:15.296Z,0.90
2018-08-28T19:41:44.015Z,1.00
2018-08-28T19:44:12.920Z,1.00
2018-08-28T19:46:42.226Z,1.00
2018-08-28T19:49:11.611Z,1.20
2018-08-28T19:51:40.405Z,0.90
2018-08-28T19:54:09.034Z,1.10
2018-08-28T19:56:37.731Z,1.10
2018-08-28T19:59:06.550Z,0.73
2018-08-28T20:01:35.031Z,1.03
2018-08-28T20:04:04.129Z,1.17
2018-08-28T20:06:32.646Z,0.90
2018-08-28T20:09:01.984Z,0.93
2018-08-28T20:11:31.385Z,0.87
2018-08-28T20:14:01.226Z,1.00
2018-08-28T20:16:29.877Z,0.90
2018-08-28T20:18:58.680Z,0.90
2018-08-28T20:21:27.451Z,0.93
2018-08-28T20:23:55.998Z,0.90
2018-08-28T20:26:24.636Z,1.10
2018-08-28T20:28:53.201Z,0.80
2018-08-28T20:31:22.400Z,0.90
2018-08-28T20:33:51.043Z,0.80
2018-08-28T20:36:20.283Z,0.80
2018-08-28T20:38:49.682Z,0.93
2018-08-28T20:41:18.777Z,1.00
2018-08-28T20:43:47.498Z,1.00
2018-08-28T20:46:16.282Z,1.00
2018-08-28T20:48:44.921Z,1.10
2018-08-28T20:51:13.668Z,1.07
2018-08-28T20:53:43.371Z,0.80
2018-08-28T20:56:12.062Z,0.93
2018-08-28T20:58:40.967Z,0.97
2018-08-28T21:01:09.530Z,0.83
2018-08-28T21:03:39.461Z,1.10
2018-08-28T21:06:08.807Z,1.00
2018-08-28T21:08:38.109Z,1.90
2018-08-28T21:11:06.789Z,2.27
2018-08-28T21:13:35.660Z,2.13
2018-08-28T21:16:04.282Z,2.10
2018-08-28T21:18:33.831Z,1.30
2018-08-28T21:21:03.066Z,1.20
2018-08-28T21:23:32.007Z,1.10
2018-08-28T21:26:00.552Z,1.37
2018-08-28T21:28:29.082Z,1.10
2018-08-28T21:30:57.872Z,0.93
2018-08-28T21:33:26.446Z,1.00
2018-08-28T21:35:55.214Z,1.20
2018-08-28T21:38:23.946Z,0.90
2018-08-28T21:40:53.870Z,1.00
2018-08-28T21:43:22.568Z,1.07
2018-08-28T21:45:51.971Z,1.13
2018-08-28T21:48:20.843Z,1.00
2018-08-28T21:50:49.887Z,1.10
2018-08-28T21:53:18.477Z,1.00
2018-08-28T21:55:48.151Z,0.90
2018-08-28T21:58:16.930Z,1.10
2018-08-28T22:00:49.813Z,1.03
2018-08-28T22:03:18.450Z,0.93
2018-08-28T22:05:47.473Z,1.00
2018-08-28T22:08:16.733Z,0.80
2018-08-28T22:10:46.771Z,1.20
2018-08-28T22:13:15.429Z,1.10
2018-08-28T22:15:44.381Z,1.07
2018-08-28T22:18:13.170Z,0.90
2018-08-28T22:20:57.330Z,0.93
2018-08-28T22:23:26.720Z,1.00
2018-08-28T22:25:56.033Z,1.10
2018-08-28T22:28:24.646Z,0.90
2018-08-28T22:30:54.454Z,1.03
2018-08-28T22:33:22.995Z,1.00
2018-08-28T22:35:51.764Z,0.80
2018-08-28T22:38:20.350Z,1.40
2018-08-28T22:40:49.086Z,1.00
2018-08-28T22:43:22.281Z,1.00
2018-08-28T22:45:52.159Z,1.17
2018-08-28T22:48:20.844Z,1.03
2018-08-28T22:50:49.850Z,1.07
2018-08-28T22:53:18.468Z,1.00
2018-08-28T22:55:47.202Z,0.93
2018-08-28T22:58:16.019Z,0.93
2018-08-28T23:00:44.654Z,0.80
2018-08-28T23:03:13.308Z,1.03
2018-08-28T23:05:42.021Z,1.00
2018-08-28T23:08:11.022Z,0.90
2018-08-28T23:10:39.674Z,1.00
2018-08-28T23:13:08.680Z,1.10
2018-08-28T23:15:37.330Z,1.20
2018-08-28T23:18:06.167Z,1.17
2018-08-28T23:20:34.878Z,1.00
2018-08-28T23:23:03.737Z,1.10
2018-08-28T23:25:32.352Z,1.10
2018-08-28T23:28:00.852Z,1.20
2018-08-28T23:30:29.620Z,1.03
2018-08-28T23:32:58.486Z,1.10
2018-08-28T23:35:28.057Z,1.13
2018-08-28T23:37:56.610Z,1.00
2018-08-28T23:40:25.899Z,1.23
2018-08-28T23:42:54.498Z,1.00
2018-08-28T23:45:23.472Z,1.20
2018-08-28T23:47:52.025Z,1.10
2018-08-28T23:50:21.605Z,1.03
2018-08-28T23:52:50.246Z,1.00
2018-08-28T23:55:18.967Z,1.30
2018-08-28T23:57:48.090Z,1.20
